sensor_id;sensor_type;location;lat;lon;timestamp;pressure;altitude;pressure_sealevel;temperature;humidity
73896;BME280;73986;50.770;6.080;2023-12-20T00:01:56;99486.72;;;7.12;76.62
73896;BME280;73986;50.770;6.080;2023-12-20T00:12:00;99492.28;;;6.93;76.74
73896;BME280;73986;50.770;6.080;2023-12-20T00:22:03;99503.59;;;6.79;77.03
73896;BME280;73986;50.770;6.080;2023-12-20T00:32:06;99514.69;;;6.97;76.47
73896;BME280;73986;50.770;6.080;2023-12-20T00:42:09;99534.97;;;6.93;76.36
73896;BME280;73986;50.770;6.080;2023-12-20T00:52:11;99546.44;;;6.47;76.08
73896;BME280;73986;50.770;6.080;2023-12-20T01:02:29;99582.44;;;5.96;76.79
73896;BME280;73986;50.770;6.080;2023-12-20T01:12:31;99591.81;;;5.68;77.04
73896;BME280;73986;50.770;6.080;2023-12-20T01:22:34;99600.16;;;5.43;76.72
73896;BME280;73986;50.770;6.080;2023-12-20T01:32:36;99585.94;;;5.48;76.45
73896;BME280;73986;50.770;6.080;2023-12-20T01:42:47;99580.47;;;5.37;76.24
73896;BME280;73986;50.770;6.080;2023-12-20T02:03:35;99596.88;;;5.39;75.83
73896;BME280;73986;50.770;6.080;2023-12-20T02:13:37;99611.53;;;5.42;76.14
73896;BME280;73986;50.770;6.080;2023-12-20T02:23:41;99612.72;;;5.52;75.80
73896;BME280;73986;50.770;6.080;2023-12-20T02:33:44;99601.19;;;5.40;75.98
73896;BME280;73986;50.770;6.080;2023-12-20T02:43:47;99601.25;;;5.39;75.91
73896;BME280;73986;50.770;6.080;2023-12-20T02:53:49;99607.38;;;5.38;75.50
73896;BME280;73986;50.770;6.080;2023-12-20T03:03:52;99614.47;;;5.35;75.38
73896;BME280;73986;50.770;6.080;2023-12-20T03:13:54;99607.66;;;5.33;75.85
73896;BME280;73986;50.770;6.080;2023-12-20T03:24:00;99596.63;;;5.28;75.89
73896;BME280;73986;50.770;6.080;2023-12-20T03:34:02;99615.22;;;5.21;75.60
73896;BME280;73986;50.770;6.080;2023-12-20T03:44:05;99609.06;;;5.22;75.43
73896;BME280;73986;50.770;6.080;2023-12-20T03:54:07;99609.31;;;5.18;75.43
73896;BME280;73986;50.770;6.080;2023-12-20T04:04:10;99586.25;;;5.10;75.93
73896;BME280;73986;50.770;6.080;2023-12-20T04:14:12;99595.16;;;5.06;75.90
73896;BME280;73986;50.770;6.080;2023-12-20T04:24:15;99596.00;;;5.06;76.03
73896;BME280;73986;50.770;6.080;2023-12-20T04:34:16;99598.97;;;5.16;75.63
73896;BME280;73986;50.770;6.080;2023-12-20T04:44:19;99606.88;;;5.15;75.44
73896;BME280;73986;50.770;6.080;2023-12-20T04:54:21;99604.34;;;5.13;75.64
73896;BME280;73986;50.770;6.080;2023-12-20T05:04:24;99608.72;;;5.13;75.74
73896;BME280;73986;50.770;6.080;2023-12-20T05:14:26;99621.69;;;5.14;75.61
73896;BME280;73986;50.770;6.080;2023-12-20T05:24:28;99607.66;;;5.17;75.46
73896;BME280;73986;50.770;6.080;2023-12-20T05:34:30;99621.44;;;5.19;75.24
73896;BME280;73986;50.770;6.080;2023-12-20T05:44:33;99610.31;;;5.15;75.54
73896;BME280;73986;50.770;6.080;2023-12-20T05:54:35;99622.19;;;5.21;75.11
73896;BME280;73986;50.770;6.080;2023-12-20T06:04:41;99624.03;;;5.19;75.06
73896;BME280;73986;50.770;6.080;2023-12-20T06:14:43;99620.09;;;5.11;75.25
73896;BME280;73986;50.770;6.080;2023-12-20T06:24:46;99629.94;;;5.06;74.96
73896;BME280;73986;50.770;6.080;2023-12-20T06:34:47;99629.34;;;5.17;75.02
73896;BME280;73986;50.770;6.080;2023-12-20T06:44:50;99624.88;;;5.19;75.08
73896;BME280;73986;50.770;6.080;2023-12-20T06:54:52;99623.31;;;5.17;74.75
73896;BME280;73986;50.770;6.080;2023-12-20T07:04:55;99639.19;;;5.12;74.79
73896;BME280;73986;50.770;6.080;2023-12-20T07:14:57;99641.25;;;5.05;74.96
73896;BME280;73986;50.770;6.080;2023-12-20T07:25:00;99630.53;;;5.11;74.73
73896;BME280;73986;50.770;6.080;2023-12-20T07:35:04;99656.63;;;5.11;74.69
73896;BME280;73986;50.770;6.080;2023-12-20T07:45:08;99633.97;;;5.12;74.49
73896;BME280;73986;50.770;6.080;2023-12-20T07:55:10;99630.91;;;5.04;74.57
73896;BME280;73986;50.770;6.080;2023-12-20T08:05:17;99627.91;;;5.11;74.35
73896;BME280;73986;50.770;6.080;2023-12-20T08:15:21;99634.38;;;5.04;74.66
73896;BME280;73986;50.770;6.080;2023-12-20T08:25:24;99634.72;;;5.14;74.59
73896;BME280;73986;50.770;6.080;2023-12-20T08:35:25;99619.09;;;5.46;73.75
73896;BME280;73986;50.770;6.080;2023-12-20T08:45:28;99641.78;;;5.62;74.14
73896;BME280;73986;50.770;6.080;2023-12-20T08:55:31;99646.31;;;5.75;73.76
73896;BME280;73986;50.770;6.080;2023-12-20T09:05:34;99651.78;;;5.86;73.78
73896;BME280;73986;50.770;6.080;2023-12-20T09:15:37;99645.38;;;5.76;73.92
73896;BME280;73986;50.770;6.080;2023-12-20T09:25:41;99651.13;;;5.66;74.03
73896;BME280;73986;50.770;6.080;2023-12-20T09:35:43;99630.47;;;5.62;73.97
73896;BME280;73986;50.770;6.080;2023-12-20T09:45:47;99652.81;;;5.83;73.37
73896;BME280;73986;50.770;6.080;2023-12-20T09:55:49;99632.72;;;6.16;72.57
73896;BME280;73986;50.770;6.080;2023-12-20T10:05:54;99650.72;;;6.37;72.87
73896;BME280;73986;50.770;6.080;2023-12-20T10:15:57;99644.44;;;6.56;72.83
73896;BME280;73986;50.770;6.080;2023-12-20T10:26:01;99621.50;;;6.76;72.25
73896;BME280;73986;50.770;6.080;2023-12-20T10:36:04;99600.91;;;6.69;72.01
73896;BME280;73986;50.770;6.080;2023-12-20T10:46:07;99583.09;;;6.91;72.08
73896;BME280;73986;50.770;6.080;2023-12-20T10:56:10;99599.81;;;6.74;71.52
73896;BME280;73986;50.770;6.080;2023-12-20T11:06:24;99598.00;;;6.45;72.71
73896;BME280;73986;50.770;6.080;2023-12-20T11:16:27;99605.53;;;6.35;72.58
73896;BME280;73986;50.770;6.080;2023-12-20T11:26:30;99581.56;;;6.43;72.05
73896;BME280;73986;50.770;6.080;2023-12-20T11:36:32;99573.72;;;6.57;71.33
73896;BME280;73986;50.770;6.080;2023-12-20T11:46:35;99555.91;;;6.64;71.03
73896;BME280;73986;50.770;6.080;2023-12-20T11:56:37;99556.56;;;6.68;71.78
73896;BME280;73986;50.770;6.080;2023-12-20T12:06:40;99546.38;;;6.63;71.64
73896;BME280;73986;50.770;6.080;2023-12-20T12:16:42;99531.31;;;6.52;71.39
73896;BME280;73986;50.770;6.080;2023-12-20T12:26:49;99510.63;;;6.64;71.12
73896;BME280;73986;50.770;6.080;2023-12-20T12:36:51;99501.25;;;6.89;70.58
73896;BME280;73986;50.770;6.080;2023-12-20T12:46:54;99506.38;;;7.05;70.72
73896;BME280;73986;50.770;6.080;2023-12-20T12:56:57;99504.50;;;6.92;70.82
73896;BME280;73986;50.770;6.080;2023-12-20T13:07:00;99494.50;;;6.99;70.91
73896;BME280;73986;50.770;6.080;2023-12-20T13:17:02;99475.41;;;6.55;72.04
73896;BME280;73986;50.770;6.080;2023-12-20T13:27:05;99466.16;;;6.35;72.89
73896;BME280;73986;50.770;6.080;2023-12-20T13:37:07;99446.19;;;6.48;72.72
73896;BME280;73986;50.770;6.080;2023-12-20T13:47:10;99452.03;;;6.66;72.41
73896;BME280;73986;50.770;6.080;2023-12-20T13:57:12;99437.00;;;6.70;72.40
73896;BME280;73986;50.770;6.080;2023-12-20T14:07:15;99407.63;;;6.52;72.85
73896;BME280;73986;50.770;6.080;2023-12-20T14:17:17;99389.47;;;6.63;72.62
73896;BME280;73986;50.770;6.080;2023-12-20T14:27:20;99401.91;;;6.60;72.75
73896;BME280;73986;50.770;6.080;2023-12-20T14:37:24;99390.88;;;6.54;72.48
73896;BME280;73986;50.770;6.080;2023-12-20T14:47:28;99388.06;;;6.57;72.23
73896;BME280;73986;50.770;6.080;2023-12-20T14:57:29;99404.06;;;6.67;72.21
73896;BME280;73986;50.770;6.080;2023-12-20T15:07:32;99395.19;;;6.55;72.47
73896;BME280;73986;50.770;6.080;2023-12-20T15:17:34;99390.22;;;6.51;72.68
73896;BME280;73986;50.770;6.080;2023-12-20T15:27:37;99392.94;;;6.64;72.40
73896;BME280;73986;50.770;6.080;2023-12-20T15:37:39;99402.44;;;6.65;72.12
73896;BME280;73986;50.770;6.080;2023-12-20T15:47:42;99401.34;;;6.69;72.59
73896;BME280;73986;50.770;6.080;2023-12-20T15:57:44;99387.97;;;6.74;72.32
73896;BME280;73986;50.770;6.080;2023-12-20T16:07:47;99380.00;;;6.75;72.34
73896;BME280;73986;50.770;6.080;2023-12-20T16:17:49;99371.00;;;6.79;72.52
73896;BME280;73986;50.770;6.080;2023-12-20T16:27:52;99381.31;;;6.83;72.33
73896;BME280;73986;50.770;6.080;2023-12-20T16:37:53;99371.75;;;6.81;72.50
73896;BME280;73986;50.770;6.080;2023-12-20T16:47:56;99355.19;;;6.96;72.30
73896;BME280;73986;50.770;6.080;2023-12-20T16:58:00;99330.25;;;6.90;72.46
73896;BME280;73986;50.770;6.080;2023-12-20T17:08:03;99329.88;;;6.96;72.66
73896;BME280;73986;50.770;6.080;2023-12-20T17:18:05;99315.00;;;6.97;72.73
73896;BME280;73986;50.770;6.080;2023-12-20T17:28:08;99285.94;;;7.14;72.29
73896;BME280;73986;50.770;6.080;2023-12-20T17:38:09;99293.69;;;7.16;72.51
73896;BME280;73986;50.770;6.080;2023-12-20T17:48:13;99278.94;;;7.15;72.44
73896;BME280;73986;50.770;6.080;2023-12-20T17:58:14;99267.13;;;7.22;72.51
73896;BME280;73986;50.770;6.080;2023-12-20T18:08:17;99267.84;;;7.24;72.91
73896;BME280;73986;50.770;6.080;2023-12-20T18:18:19;99248.69;;;7.24;72.88
73896;BME280;73986;50.770;6.080;2023-12-20T18:28:22;99223.34;;;7.24;72.91
73896;BME280;73986;50.770;6.080;2023-12-20T18:38:24;99212.03;;;7.37;72.46
73896;BME280;73986;50.770;6.080;2023-12-20T18:48:31;99218.63;;;7.42;72.56
73896;BME280;73986;50.770;6.080;2023-12-20T18:58:34;99205.31;;;7.33;73.16
73896;BME280;73986;50.770;6.080;2023-12-20T19:08:37;99199.88;;;7.23;73.61
73896;BME280;73986;50.770;6.080;2023-12-20T19:18:42;99181.56;;;7.36;73.39
73896;BME280;73986;50.770;6.080;2023-12-20T19:28:49;99174.25;;;7.41;73.15
73896;BME280;73986;50.770;6.080;2023-12-20T19:38:50;99163.84;;;7.52;73.12
73896;BME280;73986;50.770;6.080;2023-12-20T19:48:53;99151.47;;;7.54;72.94
73896;BME280;73986;50.770;6.080;2023-12-20T19:58:55;99129.63;;;7.67;72.45
73896;BME280;73986;50.770;6.080;2023-12-20T20:08:58;99115.91;;;7.63;72.52
73896;BME280;73986;50.770;6.080;2023-12-20T20:19:00;99084.50;;;7.63;72.69
73896;BME280;73986;50.770;6.080;2023-12-20T20:29:02;99083.00;;;7.72;72.50
73896;BME280;73986;50.770;6.080;2023-12-20T20:39:04;99062.63;;;7.64;72.88
73896;BME280;73986;50.770;6.080;2023-12-20T20:49:08;99035.84;;;7.72;72.77
73896;BME280;73986;50.770;6.080;2023-12-20T20:59:09;99039.69;;;7.79;72.35
73896;BME280;73986;50.770;6.080;2023-12-20T21:09:12;99029.94;;;7.82;72.70
73896;BME280;73986;50.770;6.080;2023-12-20T21:19:14;99066.28;;;7.62;73.12
73896;BME280;73986;50.770;6.080;2023-12-20T21:29:17;99035.94;;;7.46;73.74
73896;BME280;73986;50.770;6.080;2023-12-20T21:39:19;99024.06;;;7.42;74.55
73896;BME280;73986;50.770;6.080;2023-12-20T21:49:22;99019.16;;;7.37;74.60
73896;BME280;73986;50.770;6.080;2023-12-20T21:59:24;98971.84;;;7.27;75.22
73896;BME280;73986;50.770;6.080;2023-12-20T22:09:28;98968.84;;;7.21;75.24
73896;BME280;73986;50.770;6.080;2023-12-20T22:19:30;98992.69;;;7.29;75.17
73896;BME280;73986;50.770;6.080;2023-12-20T22:29:33;98993.50;;;7.29;75.54
73896;BME280;73986;50.770;6.080;2023-12-20T22:39:36;98981.38;;;7.28;75.96
73896;BME280;73986;50.770;6.080;2023-12-20T22:49:39;98968.19;;;7.30;76.19
73896;BME280;73986;50.770;6.080;2023-12-20T22:59:40;98962.72;;;7.33;76.16
73896;BME280;73986;50.770;6.080;2023-12-20T23:09:43;98960.00;;;7.35;76.13
73896;BME280;73986;50.770;6.080;2023-12-20T23:19:46;98945.13;;;7.35;76.35
73896;BME280;73986;50.770;6.080;2023-12-20T23:29:49;98928.56;;;7.35;76.54
73896;BME280;73986;50.770;6.080;2023-12-20T23:39:51;98886.69;;;7.35;76.54
73896;BME280;73986;50.770;6.080;2023-12-20T23:49:53;98865.75;;;7.35;76.79
73896;BME280;73986;50.770;6.080;2023-12-20T23:59:55;98866.59;;;7.35;77.21
